Terminal Aerodrome Forecast
Issued by NWS

Home | Current Version | Previous Version | Text Only | Print | Product List | Glossary On
Versions: 1 2 3 4 5 6 7 8 9 10 11 12 13 14 15 16 17 18 19
824
FTUS43 KDLH 140528
TAFHYR
TAF
KHYR 140528Z 1406/1506 10005KT P6SM VCSH OVC080
     FM141400 11005KT P6SM VCSH SCT015 OVC040
     FM142200 VRB03KT P6SM VCSH BKN050=

USA.gov is the U.S. government's official web portal to all federal, state and local government web resources and services.